sensor_id;sensor_type;location;lat;lon;timestamp;P1;durP1;ratioP1;P2;durP2;ratioP2
33491;SDS011;20010;51.488;7.232;2023-06-01T00:02:13;12.75;;;10.30;;
33491;SDS011;20010;51.488;7.232;2023-06-01T00:04:40;10.32;;;9.43;;
33491;SDS011;20010;51.488;7.232;2023-06-01T00:07:07;11.07;;;10.00;;
33491;SDS011;20010;51.488;7.232;2023-06-01T00:09:35;10.38;;;9.48;;
33491;SDS011;20010;51.488;7.232;2023-06-01T00:12:02;11.48;;;10.55;;
33491;SDS011;20010;51.488;7.232;2023-06-01T00:14:29;10.88;;;10.07;;
33491;SDS011;20010;51.488;7.232;2023-06-01T00:16:56;11.43;;;10.52;;
33491;SDS011;20010;51.488;7.232;2023-06-01T00:19:23;12.75;;;10.82;;
33491;SDS011;20010;51.488;7.232;2023-06-01T00:21:52;11.45;;;10.45;;
33491;SDS011;20010;51.488;7.232;2023-06-01T00:24:23;10.88;;;10.07;;
33491;SDS011;20010;51.488;7.232;2023-06-01T00:26:52;11.15;;;10.30;;
33491;SDS011;20010;51.488;7.232;2023-06-01T00:29:18;11.85;;;10.65;;
33491;SDS011;20010;51.488;7.232;2023-06-01T00:31:45;11.52;;;10.50;;
33491;SDS011;20010;51.488;7.232;2023-06-01T00:34:11;11.82;;;10.77;;
33491;SDS011;20010;51.488;7.232;2023-06-01T00:36:38;12.23;;;11.00;;
33491;SDS011;20010;51.488;7.232;2023-06-01T00:39:05;12.63;;;11.68;;
33491;SDS011;20010;51.488;7.232;2023-06-01T00:41:32;12.27;;;11.30;;
33491;SDS011;20010;51.488;7.232;2023-06-01T00:43:59;12.50;;;11.48;;
33491;SDS011;20010;51.488;7.232;2023-06-01T00:46:26;11.95;;;10.77;;
33491;SDS011;20010;51.488;7.232;2023-06-01T00:48:53;13.27;;;12.07;;
33491;SDS011;20010;51.488;7.232;2023-06-01T00:51:20;11.32;;;10.52;;
33491;SDS011;20010;51.488;7.232;2023-06-01T00:53:47;12.45;;;11.32;;
33491;SDS011;20010;51.488;7.232;2023-06-01T00:56:15;14.05;;;10.82;;
33491;SDS011;20010;51.488;7.232;2023-06-01T00:58:41;12.82;;;11.88;;
33491;SDS011;20010;51.488;7.232;2023-06-01T01:01:08;12.07;;;11.10;;
33491;SDS011;20010;51.488;7.232;2023-06-01T01:03:46;12.25;;;11.25;;
33491;SDS011;20010;51.488;7.232;2023-06-01T01:06:24;13.65;;;12.30;;
33491;SDS011;20010;51.488;7.232;2023-06-01T01:11:34;12.43;;;11.43;;
33491;SDS011;20010;51.488;7.232;2023-06-01T01:14:05;12.13;;;11.20;;
33491;SDS011;20010;51.488;7.232;2023-06-01T01:22:12;13.20;;;12.00;;
33491;SDS011;20010;51.488;7.232;2023-06-01T01:30:22;15.27;;;12.68;;
33491;SDS011;20010;51.488;7.232;2023-06-01T01:32:53;13.95;;;12.55;;
33491;SDS011;20010;51.488;7.232;2023-06-01T01:35:20;16.77;;;13.80;;
33491;SDS011;20010;51.488;7.232;2023-06-01T01:37:52;15.90;;;14.40;;
33491;SDS011;20010;51.488;7.232;2023-06-01T01:40:19;13.60;;;12.50;;
33491;SDS011;20010;51.488;7.232;2023-06-01T01:42:47;14.70;;;13.40;;
33491;SDS011;20010;51.488;7.232;2023-06-01T01:45:14;14.70;;;13.32;;
33491;SDS011;20010;51.488;7.232;2023-06-01T01:47:49;15.60;;;13.80;;
33491;SDS011;20010;51.488;7.232;2023-06-01T01:50:22;15.52;;;13.77;;
33491;SDS011;20010;51.488;7.232;2023-06-01T01:52:52;14.57;;;13.38;;
33491;SDS011;20010;51.488;7.232;2023-06-01T01:55:20;15.20;;;13.73;;
33491;SDS011;20010;51.488;7.232;2023-06-01T01:57:50;14.55;;;13.25;;
33491;SDS011;20010;51.488;7.232;2023-06-01T02:00:18;15.85;;;14.48;;
33491;SDS011;20010;51.488;7.232;2023-06-01T02:02:45;14.52;;;13.35;;
33491;SDS011;20010;51.488;7.232;2023-06-01T02:05:12;15.15;;;13.85;;
33491;SDS011;20010;51.488;7.232;2023-06-01T02:07:39;15.20;;;13.63;;
33491;SDS011;20010;51.488;7.232;2023-06-01T02:10:06;15.75;;;14.25;;
33491;SDS011;20010;51.488;7.232;2023-06-01T02:12:33;15.38;;;13.93;;
33491;SDS011;20010;51.488;7.232;2023-06-01T02:15:00;16.27;;;14.70;;
33491;SDS011;20010;51.488;7.232;2023-06-01T02:17:26;17.00;;;15.02;;
33491;SDS011;20010;51.488;7.232;2023-06-01T02:19:53;16.40;;;14.73;;
33491;SDS011;20010;51.488;7.232;2023-06-01T02:22:20;16.48;;;14.88;;
33491;SDS011;20010;51.488;7.232;2023-06-01T02:24:46;17.52;;;15.73;;
33491;SDS011;20010;51.488;7.232;2023-06-01T02:27:13;17.13;;;14.50;;
33491;SDS011;20010;51.488;7.232;2023-06-01T02:29:40;17.05;;;15.40;;
33491;SDS011;20010;51.488;7.232;2023-06-01T02:32:07;17.85;;;15.68;;
33491;SDS011;20010;51.488;7.232;2023-06-01T02:34:34;16.60;;;14.68;;
33491;SDS011;20010;51.488;7.232;2023-06-01T02:37:02;16.48;;;14.98;;
33491;SDS011;20010;51.488;7.232;2023-06-01T02:39:31;16.83;;;15.15;;
33491;SDS011;20010;51.488;7.232;2023-06-01T02:41:57;17.50;;;15.85;;
33491;SDS011;20010;51.488;7.232;2023-06-01T02:44:24;16.80;;;15.20;;
33491;SDS011;20010;51.488;7.232;2023-06-01T02:46:51;17.60;;;15.75;;
33491;SDS011;20010;51.488;7.232;2023-06-01T02:49:18;18.65;;;16.77;;
33491;SDS011;20010;51.488;7.232;2023-06-01T02:51:44;18.75;;;16.08;;
33491;SDS011;20010;51.488;7.232;2023-06-01T02:54:11;18.23;;;16.40;;
33491;SDS011;20010;51.488;7.232;2023-06-01T02:56:37;17.70;;;16.00;;
33491;SDS011;20010;51.488;7.232;2023-06-01T02:59:04;18.67;;;16.63;;
33491;SDS011;20010;51.488;7.232;2023-06-01T03:01:32;20.40;;;18.30;;
33491;SDS011;20010;51.488;7.232;2023-06-01T03:04:02;21.35;;;18.33;;
33491;SDS011;20010;51.488;7.232;2023-06-01T03:06:33;19.90;;;17.92;;
33491;SDS011;20010;51.488;7.232;2023-06-01T03:09:04;20.73;;;18.58;;
33491;SDS011;20010;51.488;7.232;2023-06-01T03:11:31;20.52;;;17.92;;
33491;SDS011;20010;51.488;7.232;2023-06-01T03:13:57;21.52;;;19.25;;
33491;SDS011;20010;51.488;7.232;2023-06-01T03:16:24;20.48;;;18.40;;
33491;SDS011;20010;51.488;7.232;2023-06-01T03:18:52;20.60;;;18.40;;
33491;SDS011;20010;51.488;7.232;2023-06-01T03:21:18;20.92;;;18.13;;
33491;SDS011;20010;51.488;7.232;2023-06-01T03:23:45;26.27;;;18.40;;
33491;SDS011;20010;51.488;7.232;2023-06-01T03:26:12;20.95;;;18.95;;
33491;SDS011;20010;51.488;7.232;2023-06-01T03:28:40;19.60;;;17.70;;
33491;SDS011;20010;51.488;7.232;2023-06-01T03:31:06;20.52;;;18.55;;
33491;SDS011;20010;51.488;7.232;2023-06-01T03:33:33;22.80;;;20.50;;
33491;SDS011;20010;51.488;7.232;2023-06-01T03:36:00;22.33;;;20.00;;
33491;SDS011;20010;51.488;7.232;2023-06-01T03:38:27;21.33;;;19.30;;
33491;SDS011;20010;51.488;7.232;2023-06-01T03:40:54;23.77;;;21.38;;
33491;SDS011;20010;51.488;7.232;2023-06-01T03:43:21;22.42;;;20.00;;
33491;SDS011;20010;51.488;7.232;2023-06-01T03:45:47;23.55;;;21.17;;
33491;SDS011;20010;51.488;7.232;2023-06-01T03:48:14;21.67;;;19.45;;
33491;SDS011;20010;51.488;7.232;2023-06-01T03:50:41;22.98;;;20.58;;
33491;SDS011;20010;51.488;7.232;2023-06-01T03:53:07;21.45;;;19.10;;
33491;SDS011;20010;51.488;7.232;2023-06-01T03:55:34;21.20;;;19.20;;
33491;SDS011;20010;51.488;7.232;2023-06-01T03:58:02;23.92;;;19.02;;
33491;SDS011;20010;51.488;7.232;2023-06-01T04:00:29;23.17;;;20.05;;
33491;SDS011;20010;51.488;7.232;2023-06-01T04:02:59;22.77;;;20.70;;
33491;SDS011;20010;51.488;7.232;2023-06-01T04:05:28;23.10;;;20.83;;
33491;SDS011;20010;51.488;7.232;2023-06-01T04:07:54;23.50;;;21.08;;
33491;SDS011;20010;51.488;7.232;2023-06-01T04:10:21;26.38;;;21.35;;
33491;SDS011;20010;51.488;7.232;2023-06-01T04:12:49;25.85;;;23.40;;
33491;SDS011;20010;51.488;7.232;2023-06-01T04:15:16;24.23;;;21.73;;
33491;SDS011;20010;51.488;7.232;2023-06-01T04:17:44;24.67;;;22.23;;
33491;SDS011;20010;51.488;7.232;2023-06-01T04:20:12;23.80;;;21.42;;
33491;SDS011;20010;51.488;7.232;2023-06-01T04:22:40;24.83;;;22.55;;
33491;SDS011;20010;51.488;7.232;2023-06-01T04:25:08;23.20;;;20.80;;
33491;SDS011;20010;51.488;7.232;2023-06-01T04:27:44;25.00;;;22.25;;
33491;SDS011;20010;51.488;7.232;2023-06-01T04:30:12;24.52;;;21.38;;
33491;SDS011;20010;51.488;7.232;2023-06-01T04:32:39;23.27;;;20.83;;
33491;SDS011;20010;51.488;7.232;2023-06-01T04:35:06;26.08;;;20.05;;
33491;SDS011;20010;51.488;7.232;2023-06-01T04:37:34;23.30;;;20.42;;
33491;SDS011;20010;51.488;7.232;2023-06-01T04:40:02;26.63;;;23.75;;
33491;SDS011;20010;51.488;7.232;2023-06-01T04:42:34;25.15;;;22.55;;
33491;SDS011;20010;51.488;7.232;2023-06-01T04:45:01;26.05;;;23.55;;
33491;SDS011;20010;51.488;7.232;2023-06-01T04:47:33;23.75;;;21.35;;
33491;SDS011;20010;51.488;7.232;2023-06-01T04:50:07;23.42;;;21.05;;
33491;SDS011;20010;51.488;7.232;2023-06-01T04:55:02;23.92;;;20.58;;
33491;SDS011;20010;51.488;7.232;2023-06-01T04:57:31;24.45;;;21.95;;
33491;SDS011;20010;51.488;7.232;2023-06-01T04:59:58;23.45;;;21.15;;
33491;SDS011;20010;51.488;7.232;2023-06-01T05:02:38;25.05;;;22.13;;
33491;SDS011;20010;51.488;7.232;2023-06-01T05:05:09;22.08;;;19.80;;
33491;SDS011;20010;51.488;7.232;2023-06-01T05:07:36;20.67;;;18.63;;
33491;SDS011;20010;51.488;7.232;2023-06-01T05:10:04;19.98;;;17.88;;
33491;SDS011;20010;51.488;7.232;2023-06-01T05:12:32;20.17;;;18.17;;
33491;SDS011;20010;51.488;7.232;2023-06-01T05:15:00;19.48;;;17.40;;
33491;SDS011;20010;51.488;7.232;2023-06-01T05:17:29;19.05;;;17.15;;
33491;SDS011;20010;51.488;7.232;2023-06-01T05:19:56;21.88;;;18.90;;
33491;SDS011;20010;51.488;7.232;2023-06-01T05:22:26;20.23;;;18.17;;
33491;SDS011;20010;51.488;7.232;2023-06-01T05:24:53;20.90;;;18.77;;
33491;SDS011;20010;51.488;7.232;2023-06-01T05:27:19;18.95;;;17.13;;
33491;SDS011;20010;51.488;7.232;2023-06-01T05:29:46;20.05;;;17.52;;
33491;SDS011;20010;51.488;7.232;2023-06-01T05:32:12;20.42;;;18.42;;
33491;SDS011;20010;51.488;7.232;2023-06-01T05:34:39;19.25;;;17.25;;
33491;SDS011;20010;51.488;7.232;2023-06-01T05:37:06;18.55;;;16.65;;
33491;SDS011;20010;51.488;7.232;2023-06-01T05:39:32;19.35;;;17.67;;
33491;SDS011;20010;51.488;7.232;2023-06-01T05:41:59;18.58;;;16.98;;
33491;SDS011;20010;51.488;7.232;2023-06-01T05:44:26;20.38;;;18.42;;
33491;SDS011;20010;51.488;7.232;2023-06-01T05:46:52;19.33;;;17.63;;
33491;SDS011;20010;51.488;7.232;2023-06-01T05:49:19;21.77;;;19.75;;
33491;SDS011;20010;51.488;7.232;2023-06-01T05:51:46;21.30;;;18.77;;
33491;SDS011;20010;51.488;7.232;2023-06-01T05:54:12;20.42;;;18.40;;
33491;SDS011;20010;51.488;7.232;2023-06-01T05:56:39;18.85;;;17.02;;
33491;SDS011;20010;51.488;7.232;2023-06-01T05:59:09;25.90;;;18.27;;
33491;SDS011;20010;51.488;7.232;2023-06-01T06:01:35;20.95;;;18.70;;
33491;SDS011;20010;51.488;7.232;2023-06-01T06:04:03;19.02;;;17.17;;
33491;SDS011;20010;51.488;7.232;2023-06-01T06:06:30;19.20;;;17.13;;
33491;SDS011;20010;51.488;7.232;2023-06-01T06:08:58;20.50;;;17.48;;
33491;SDS011;20010;51.488;7.232;2023-06-01T06:11:24;17.92;;;15.38;;
33491;SDS011;20010;51.488;7.232;2023-06-01T06:13:52;15.48;;;14.20;;
33491;SDS011;20010;51.488;7.232;2023-06-01T06:16:18;16.10;;;14.40;;
33491;SDS011;20010;51.488;7.232;2023-06-01T06:18:46;15.85;;;14.32;;
33491;SDS011;20010;51.488;7.232;2023-06-01T06:21:12;15.35;;;13.48;;
33491;SDS011;20010;51.488;7.232;2023-06-01T06:23:41;18.02;;;15.45;;
33491;SDS011;20010;51.488;7.232;2023-06-01T06:26:09;16.20;;;14.70;;
33491;SDS011;20010;51.488;7.232;2023-06-01T06:28:35;15.80;;;14.18;;
33491;SDS011;20010;51.488;7.232;2023-06-01T06:31:02;15.27;;;13.70;;
33491;SDS011;20010;51.488;7.232;2023-06-01T06:33:29;16.08;;;14.57;;
33491;SDS011;20010;51.488;7.232;2023-06-01T06:35:55;17.10;;;15.30;;
33491;SDS011;20010;51.488;7.232;2023-06-01T06:38:22;18.25;;;16.52;;
33491;SDS011;20010;51.488;7.232;2023-06-01T06:40:49;19.23;;;17.10;;
33491;SDS011;20010;51.488;7.232;2023-06-01T06:43:16;17.88;;;16.15;;
33491;SDS011;20010;51.488;7.232;2023-06-01T06:45:44;18.15;;;16.33;;
33491;SDS011;20010;51.488;7.232;2023-06-01T06:48:10;16.75;;;15.10;;
33491;SDS011;20010;51.488;7.232;2023-06-01T06:50:37;16.17;;;14.68;;
33491;SDS011;20010;51.488;7.232;2023-06-01T06:53:04;18.27;;;16.70;;
33491;SDS011;20010;51.488;7.232;2023-06-01T06:55:31;18.35;;;16.52;;
33491;SDS011;20010;51.488;7.232;2023-06-01T06:57:58;16.95;;;15.43;;
33491;SDS011;20010;51.488;7.232;2023-06-01T07:00:24;20.13;;;16.65;;
33491;SDS011;20010;51.488;7.232;2023-06-01T07:02:52;18.80;;;16.77;;
33491;SDS011;20010;51.488;7.232;2023-06-01T07:05:19;16.77;;;14.98;;
33491;SDS011;20010;51.488;7.232;2023-06-01T07:07:46;17.98;;;14.55;;
33491;SDS011;20010;51.488;7.232;2023-06-01T07:10:13;16.13;;;14.45;;
33491;SDS011;20010;51.488;7.232;2023-06-01T07:12:39;14.70;;;13.38;;
33491;SDS011;20010;51.488;7.232;2023-06-01T07:15:06;15.18;;;13.77;;
33491;SDS011;20010;51.488;7.232;2023-06-01T07:17:33;18.05;;;15.75;;
33491;SDS011;20010;51.488;7.232;2023-06-01T07:20:01;15.98;;;14.50;;
33491;SDS011;20010;51.488;7.232;2023-06-01T07:22:30;16.70;;;15.00;;
33491;SDS011;20010;51.488;7.232;2023-06-01T07:24:57;16.92;;;15.15;;
33491;SDS011;20010;51.488;7.232;2023-06-01T07:27:24;16.50;;;15.00;;
33491;SDS011;20010;51.488;7.232;2023-06-01T07:29:50;16.40;;;14.90;;
33491;SDS011;20010;51.488;7.232;2023-06-01T07:32:21;15.45;;;13.95;;
33491;SDS011;20010;51.488;7.232;2023-06-01T07:34:49;15.27;;;13.75;;
33491;SDS011;20010;51.488;7.232;2023-06-01T07:37:15;16.42;;;14.77;;
33491;SDS011;20010;51.488;7.232;2023-06-01T07:39:43;17.60;;;14.32;;
33491;SDS011;20010;51.488;7.232;2023-06-01T07:42:10;15.70;;;14.07;;
33491;SDS011;20010;51.488;7.232;2023-06-01T07:44:36;15.48;;;14.10;;
33491;SDS011;20010;51.488;7.232;2023-06-01T07:47:03;15.98;;;14.32;;
33491;SDS011;20010;51.488;7.232;2023-06-01T07:49:30;13.73;;;12.43;;
33491;SDS011;20010;51.488;7.232;2023-06-01T07:51:57;16.73;;;14.55;;
33491;SDS011;20010;51.488;7.232;2023-06-01T07:54:25;20.30;;;14.55;;
33491;SDS011;20010;51.488;7.232;2023-06-01T07:56:52;14.30;;;12.82;;
33491;SDS011;20010;51.488;7.232;2023-06-01T07:59:19;15.57;;;13.98;;
33491;SDS011;20010;51.488;7.232;2023-06-01T08:01:50;16.17;;;14.48;;
33491;SDS011;20010;51.488;7.232;2023-06-01T08:04:18;14.82;;;13.18;;
33491;SDS011;20010;51.488;7.232;2023-06-01T08:06:49;14.98;;;13.40;;
33491;SDS011;20010;51.488;7.232;2023-06-01T08:09:19;14.63;;;13.35;;
33491;SDS011;20010;51.488;7.232;2023-06-01T08:11:48;15.18;;;13.13;;
33491;SDS011;20010;51.488;7.232;2023-06-01T08:14:15;15.68;;;13.93;;
33491;SDS011;20010;51.488;7.232;2023-06-01T08:16:42;16.05;;;14.55;;
33491;SDS011;20010;51.488;7.232;2023-06-01T08:19:09;17.85;;;15.35;;
33491;SDS011;20010;51.488;7.232;2023-06-01T08:21:36;17.38;;;15.68;;
33491;SDS011;20010;51.488;7.232;2023-06-01T08:24:02;15.85;;;14.25;;
33491;SDS011;20010;51.488;7.232;2023-06-01T08:26:29;18.65;;;15.88;;
33491;SDS011;20010;51.488;7.232;2023-06-01T08:28:56;16.75;;;15.25;;
33491;SDS011;20010;51.488;7.232;2023-06-01T08:31:23;15.98;;;14.43;;
33491;SDS011;20010;51.488;7.232;2023-06-01T08:33:51;16.63;;;14.90;;
33491;SDS011;20010;51.488;7.232;2023-06-01T08:36:19;17.20;;;14.95;;
33491;SDS011;20010;51.488;7.232;2023-06-01T08:38:46;15.77;;;14.27;;
33491;SDS011;20010;51.488;7.232;2023-06-01T08:43:58;17.15;;;15.52;;
33491;SDS011;20010;51.488;7.232;2023-06-01T08:48:53;15.80;;;14.25;;
33491;SDS011;20010;51.488;7.232;2023-06-01T08:51:22;15.57;;;13.95;;
33491;SDS011;20010;51.488;7.232;2023-06-01T08:53:49;15.75;;;14.35;;
33491;SDS011;20010;51.488;7.232;2023-06-01T08:56:16;17.30;;;13.73;;
33491;SDS011;20010;51.488;7.232;2023-06-01T08:58:43;16.55;;;13.98;;
33491;SDS011;20010;51.488;7.232;2023-06-01T09:01:12;16.15;;;14.52;;
33491;SDS011;20010;51.488;7.232;2023-06-01T09:03:44;15.10;;;13.80;;
33491;SDS011;20010;51.488;7.232;2023-06-01T09:06:11;14.68;;;13.38;;
33491;SDS011;20010;51.488;7.232;2023-06-01T09:08:38;16.83;;;15.05;;
33491;SDS011;20010;51.488;7.232;2023-06-01T09:11:04;19.10;;;14.77;;
33491;SDS011;20010;51.488;7.232;2023-06-01T09:13:35;15.57;;;14.00;;
33491;SDS011;20010;51.488;7.232;2023-06-01T09:16:02;16.60;;;14.02;;
33491;SDS011;20010;51.488;7.232;2023-06-01T09:18:29;16.27;;;14.13;;
33491;SDS011;20010;51.488;7.232;2023-06-01T09:23:39;15.27;;;13.95;;
33491;SDS011;20010;51.488;7.232;2023-06-01T09:26:08;14.90;;;12.98;;
33491;SDS011;20010;51.488;7.232;2023-06-01T09:28:54;16.58;;;14.77;;
33491;SDS011;20010;51.488;7.232;2023-06-01T09:31:38;17.92;;;16.23;;
33491;SDS011;20010;51.488;7.232;2023-06-01T09:34:09;15.00;;;13.60;;
33491;SDS011;20010;51.488;7.232;2023-06-01T09:36:37;15.68;;;14.40;;
33491;SDS011;20010;51.488;7.232;2023-06-01T09:39:24;15.57;;;13.73;;
33491;SDS011;20010;51.488;7.232;2023-06-01T09:44:24;16.35;;;14.77;;
33491;SDS011;20010;51.488;7.232;2023-06-01T09:46:59;18.25;;;14.20;;
33491;SDS011;20010;51.488;7.232;2023-06-01T09:49:31;14.43;;;13.13;;
33491;SDS011;20010;51.488;7.232;2023-06-01T09:54:33;14.68;;;13.43;;
33491;SDS011;20010;51.488;7.232;2023-06-01T09:57:02;15.85;;;14.25;;
33491;SDS011;20010;51.488;7.232;2023-06-01T10:02:08;16.67;;;14.20;;
33491;SDS011;20010;51.488;7.232;2023-06-01T10:04:39;17.42;;;15.15;;
33491;SDS011;20010;51.488;7.232;2023-06-01T10:07:07;14.52;;;13.32;;
33491;SDS011;20010;51.488;7.232;2023-06-01T10:09:34;15.70;;;14.30;;
33491;SDS011;20010;51.488;7.232;2023-06-01T10:12:05;14.70;;;13.27;;
33491;SDS011;20010;51.488;7.232;2023-06-01T10:14:33;15.55;;;14.02;;
33491;SDS011;20010;51.488;7.232;2023-06-01T10:17:02;16.60;;;14.95;;
33491;SDS011;20010;51.488;7.232;2023-06-01T10:19:29;17.50;;;15.27;;
33491;SDS011;20010;51.488;7.232;2023-06-01T10:21:57;16.42;;;14.88;;
33491;SDS011;20010;51.488;7.232;2023-06-01T10:24:25;16.23;;;14.65;;
33491;SDS011;20010;51.488;7.232;2023-06-01T10:29:34;16.05;;;14.50;;
33491;SDS011;20010;51.488;7.232;2023-06-01T10:32:02;19.00;;;17.17;;
33491;SDS011;20010;51.488;7.232;2023-06-01T10:34:42;17.10;;;15.57;;
33491;SDS011;20010;51.488;7.232;2023-06-01T10:37:11;17.00;;;15.45;;
33491;SDS011;20010;51.488;7.232;2023-06-01T10:39:38;22.20;;;17.27;;
33491;SDS011;20010;51.488;7.232;2023-06-01T10:57:34;20.70;;;18.67;;
33491;SDS011;20010;51.488;7.232;2023-06-01T11:02:59;21.00;;;19.00;;
33491;SDS011;20010;51.488;7.232;2023-06-01T11:05:37;20.20;;;18.17;;
33491;SDS011;20010;51.488;7.232;2023-06-01T11:08:08;21.00;;;18.90;;
33491;SDS011;20010;51.488;7.232;2023-06-01T11:11:00;19.63;;;17.58;;
33491;SDS011;20010;51.488;7.232;2023-06-01T11:13:33;24.08;;;21.60;;
33491;SDS011;20010;51.488;7.232;2023-06-01T11:21:15;23.88;;;21.45;;
33491;SDS011;20010;51.488;7.232;2023-06-01T11:23:44;22.63;;;19.92;;
33491;SDS011;20010;51.488;7.232;2023-06-01T11:26:13;22.65;;;20.50;;
33491;SDS011;20010;51.488;7.232;2023-06-01T11:28:44;23.30;;;20.88;;
33491;SDS011;20010;51.488;7.232;2023-06-01T11:31:12;21.52;;;19.58;;
33491;SDS011;20010;51.488;7.232;2023-06-01T11:33:47;21.08;;;18.98;;
33491;SDS011;20010;51.488;7.232;2023-06-01T11:36:19;21.15;;;19.15;;
33491;SDS011;20010;51.488;7.232;2023-06-01T11:38:50;22.98;;;20.73;;
33491;SDS011;20010;51.488;7.232;2023-06-01T11:41:21;19.98;;;18.27;;
33491;SDS011;20010;51.488;7.232;2023-06-01T11:43:56;20.95;;;18.83;;
33491;SDS011;20010;51.488;7.232;2023-06-01T11:46:23;20.20;;;18.30;;
33491;SDS011;20010;51.488;7.232;2023-06-01T11:51:33;19.55;;;17.50;;
33491;SDS011;20010;51.488;7.232;2023-06-01T11:54:03;18.58;;;16.65;;
33491;SDS011;20010;51.488;7.232;2023-06-01T11:56:31;17.20;;;15.57;;
33491;SDS011;20010;51.488;7.232;2023-06-01T11:58:59;17.60;;;16.08;;
33491;SDS011;20010;51.488;7.232;2023-06-01T12:01:26;19.35;;;17.38;;
33491;SDS011;20010;51.488;7.232;2023-06-01T12:03:54;18.02;;;16.23;;
33491;SDS011;20010;51.488;7.232;2023-06-01T12:06:26;20.02;;;17.98;;
33491;SDS011;20010;51.488;7.232;2023-06-01T12:08:53;17.40;;;15.82;;
33491;SDS011;20010;51.488;7.232;2023-06-01T12:11:22;18.38;;;16.50;;
33491;SDS011;20010;51.488;7.232;2023-06-01T12:13:55;16.35;;;14.73;;
33491;SDS011;20010;51.488;7.232;2023-06-01T12:16:22;16.83;;;15.07;;
33491;SDS011;20010;51.488;7.232;2023-06-01T12:18:49;15.60;;;14.10;;
33491;SDS011;20010;51.488;7.232;2023-06-01T12:21:16;16.33;;;14.73;;
33491;SDS011;20010;51.488;7.232;2023-06-01T12:23:49;18.80;;;14.20;;
33491;SDS011;20010;51.488;7.232;2023-06-01T12:26:17;14.63;;;13.25;;
33491;SDS011;20010;51.488;7.232;2023-06-01T12:28:48;13.48;;;12.38;;
33491;SDS011;20010;51.488;7.232;2023-06-01T12:31:25;13.02;;;11.77;;
33491;SDS011;20010;51.488;7.232;2023-06-01T12:33:52;13.38;;;12.05;;
33491;SDS011;20010;51.488;7.232;2023-06-01T12:39:03;12.23;;;11.10;;
33491;SDS011;20010;51.488;7.232;2023-06-01T12:41:31;12.55;;;11.52;;
33491;SDS011;20010;51.488;7.232;2023-06-01T12:43:58;12.98;;;11.70;;
33491;SDS011;20010;51.488;7.232;2023-06-01T12:46:28;12.13;;;11.07;;
33491;SDS011;20010;51.488;7.232;2023-06-01T12:49:11;11.55;;;10.45;;
33491;SDS011;20010;51.488;7.232;2023-06-01T12:51:39;13.57;;;10.55;;
33491;SDS011;20010;51.488;7.232;2023-06-01T12:54:05;11.45;;;10.10;;
33491;SDS011;20010;51.488;7.232;2023-06-01T12:56:32;12.07;;;10.88;;
33491;SDS011;20010;51.488;7.232;2023-06-01T12:59:02;11.15;;;10.02;;
33491;SDS011;20010;51.488;7.232;2023-06-01T13:01:28;11.07;;;10.00;;
33491;SDS011;20010;51.488;7.232;2023-06-01T13:03:55;11.65;;;10.55;;
33491;SDS011;20010;51.488;7.232;2023-06-01T13:06:22;10.80;;;9.63;;
33491;SDS011;20010;51.488;7.232;2023-06-01T13:08:49;10.93;;;9.85;;
33491;SDS011;20010;51.488;7.232;2023-06-01T13:11:15;10.75;;;9.57;;
33491;SDS011;20010;51.488;7.232;2023-06-01T13:13:43;11.32;;;10.32;;
33491;SDS011;20010;51.488;7.232;2023-06-01T13:16:12;10.10;;;9.10;;
33491;SDS011;20010;51.488;7.232;2023-06-01T13:18:40;10.50;;;9.63;;
33491;SDS011;20010;51.488;7.232;2023-06-01T13:21:07;10.52;;;9.57;;
33491;SDS011;20010;51.488;7.232;2023-06-01T13:23:36;12.00;;;10.88;;
33491;SDS011;20010;51.488;7.232;2023-06-01T13:26:03;10.73;;;9.68;;
33491;SDS011;20010;51.488;7.232;2023-06-01T13:28:30;11.20;;;10.10;;
33491;SDS011;20010;51.488;7.232;2023-06-01T13:30:57;13.20;;;10.05;;
33491;SDS011;20010;51.488;7.232;2023-06-01T13:33:23;10.32;;;9.40;;
33491;SDS011;20010;51.488;7.232;2023-06-01T13:35:50;10.95;;;9.95;;
33491;SDS011;20010;51.488;7.232;2023-06-01T13:38:17;10.77;;;9.50;;
33491;SDS011;20010;51.488;7.232;2023-06-01T13:40:43;10.73;;;9.93;;
33491;SDS011;20010;51.488;7.232;2023-06-01T13:43:10;10.50;;;9.63;;
33491;SDS011;20010;51.488;7.232;2023-06-01T13:45:37;10.40;;;9.55;;
33491;SDS011;20010;51.488;7.232;2023-06-01T13:48:04;10.90;;;9.70;;
33491;SDS011;20010;51.488;7.232;2023-06-01T13:50:31;13.10;;;10.85;;
33491;SDS011;20010;51.488;7.232;2023-06-01T13:52:58;11.27;;;10.38;;
33491;SDS011;20010;51.488;7.232;2023-06-01T13:55:24;10.85;;;9.70;;
33491;SDS011;20010;51.488;7.232;2023-06-01T13:57:54;10.93;;;9.90;;
33491;SDS011;20010;51.488;7.232;2023-06-01T14:00:20;10.68;;;9.68;;
33491;SDS011;20010;51.488;7.232;2023-06-01T14:02:48;11.23;;;10.18;;
33491;SDS011;20010;51.488;7.232;2023-06-01T14:05:15;10.57;;;9.48;;
33491;SDS011;20010;51.488;7.232;2023-06-01T14:07:50;10.05;;;9.15;;
33491;SDS011;20010;51.488;7.232;2023-06-01T14:10:17;11.70;;;10.38;;
33491;SDS011;20010;51.488;7.232;2023-06-01T14:12:44;9.98;;;9.13;;
33491;SDS011;20010;51.488;7.232;2023-06-01T14:15:11;10.75;;;9.80;;
33491;SDS011;20010;51.488;7.232;2023-06-01T14:17:38;13.02;;;11.60;;
33491;SDS011;20010;51.488;7.232;2023-06-01T14:20:05;10.40;;;9.32;;
33491;SDS011;20010;51.488;7.232;2023-06-01T14:22:31;11.68;;;9.45;;
33491;SDS011;20010;51.488;7.232;2023-06-01T14:24:58;10.48;;;9.55;;
33491;SDS011;20010;51.488;7.232;2023-06-01T14:27:25;11.45;;;10.48;;
33491;SDS011;20010;51.488;7.232;2023-06-01T14:29:51;10.13;;;9.20;;
33491;SDS011;20010;51.488;7.232;2023-06-01T14:32:18;10.75;;;9.82;;
33491;SDS011;20010;51.488;7.232;2023-06-01T14:34:44;12.05;;;10.25;;
33491;SDS011;20010;51.488;7.232;2023-06-01T14:37:11;10.75;;;9.85;;
33491;SDS011;20010;51.488;7.232;2023-06-01T14:39:40;23.15;;;9.77;;
33491;SDS011;20010;51.488;7.232;2023-06-01T14:42:06;10.60;;;9.48;;
33491;SDS011;20010;51.488;7.232;2023-06-01T14:44:33;10.77;;;9.70;;
33491;SDS011;20010;51.488;7.232;2023-06-01T14:47:00;10.95;;;10.05;;
33491;SDS011;20010;51.488;7.232;2023-06-01T14:49:26;10.73;;;9.88;;
33491;SDS011;20010;51.488;7.232;2023-06-01T14:52:08;11.20;;;9.45;;
33491;SDS011;20010;51.488;7.232;2023-06-01T14:54:34;10.25;;;9.55;;
33491;SDS011;20010;51.488;7.232;2023-06-01T14:57:03;10.02;;;9.23;;
33491;SDS011;20010;51.488;7.232;2023-06-01T14:59:31;9.73;;;9.02;;
33491;SDS011;20010;51.488;7.232;2023-06-01T15:01:59;9.15;;;8.40;;
33491;SDS011;20010;51.488;7.232;2023-06-01T15:04:28;10.20;;;9.40;;
33491;SDS011;20010;51.488;7.232;2023-06-01T15:06:54;9.15;;;8.45;;
33491;SDS011;20010;51.488;7.232;2023-06-01T15:09:21;9.98;;;9.15;;
33491;SDS011;20010;51.488;7.232;2023-06-01T15:11:48;10.13;;;9.13;;
33491;SDS011;20010;51.488;7.232;2023-06-01T15:14:14;10.32;;;9.20;;
33491;SDS011;20010;51.488;7.232;2023-06-01T15:16:41;9.60;;;8.77;;
33491;SDS011;20010;51.488;7.232;2023-06-01T15:19:08;10.05;;;9.15;;
33491;SDS011;20010;51.488;7.232;2023-06-01T15:21:35;10.25;;;9.35;;
33491;SDS011;20010;51.488;7.232;2023-06-01T15:24:02;9.32;;;8.50;;
33491;SDS011;20010;51.488;7.232;2023-06-01T15:26:29;9.55;;;8.73;;
33491;SDS011;20010;51.488;7.232;2023-06-01T15:28:55;9.82;;;8.93;;
33491;SDS011;20010;51.488;7.232;2023-06-01T15:31:22;9.48;;;8.68;;
33491;SDS011;20010;51.488;7.232;2023-06-01T15:33:49;10.18;;;8.60;;